sensor_id;sensor_type;location;lat;lon;timestamp;P1;durP1;ratioP1;P2;durP2;ratioP2
72603;SDS011;60645;56.968;24.196;2023-04-03T00:00:06;2.83;;;0.22;;
72603;SDS011;60645;56.968;24.196;2023-04-03T00:02:34;1.08;;;0.22;;
72603;SDS011;60645;56.968;24.196;2023-04-03T00:05:01;1.60;;;0.22;;
72603;SDS011;60645;56.968;24.196;2023-04-03T00:09:54;1.77;;;0.10;;
72603;SDS011;60645;56.968;24.196;2023-04-03T00:12:21;1.65;;;0.22;;
72603;SDS011;60645;56.968;24.196;2023-04-03T00:29:29;2.75;;;0.43;;
72603;SDS011;60645;56.968;24.196;2023-04-03T00:34:23;0.63;;;0.32;;
72603;SDS011;60645;56.968;24.196;2023-04-03T00:44:21;0.38;;;0.30;;
72603;SDS011;60645;56.968;24.196;2023-04-03T00:47:09;0.85;;;0.20;;
72603;SDS011;60645;56.968;24.196;2023-04-03T00:49:37;0.82;;;0.13;;
72603;SDS011;60645;56.968;24.196;2023-04-03T00:52:07;2.20;;;0.20;;
72603;SDS011;60645;56.968;24.196;2023-04-03T00:57:06;0.60;;;0.22;;
72603;SDS011;60645;56.968;24.196;2023-04-03T00:59:36;1.75;;;0.40;;
72603;SDS011;60645;56.968;24.196;2023-04-03T01:02:07;0.80;;;0.25;;
72603;SDS011;60645;56.968;24.196;2023-04-03T01:09:32;0.75;;;0.20;;
72603;SDS011;60645;56.968;24.196;2023-04-03T01:12:20;1.17;;;0.30;;
72603;SDS011;60645;56.968;24.196;2023-04-03T01:14:49;2.35;;;0.25;;
72603;SDS011;60645;56.968;24.196;2023-04-03T01:22:59;2.80;;;0.20;;
72603;SDS011;60645;56.968;24.196;2023-04-03T01:25:41;2.47;;;0.50;;
72603;SDS011;60645;56.968;24.196;2023-04-03T01:28:12;1.15;;;0.30;;
72603;SDS011;60645;56.968;24.196;2023-04-03T01:33:14;1.42;;;0.50;;
72603;SDS011;60645;56.968;24.196;2023-04-03T01:35:41;5.78;;;0.60;;
72603;SDS011;60645;56.968;24.196;2023-04-03T01:38:08;3.50;;;0.47;;
72603;SDS011;60645;56.968;24.196;2023-04-03T01:40:36;2.83;;;0.10;;
72603;SDS011;60645;56.968;24.196;2023-04-03T01:43:04;1.75;;;0.32;;
72603;SDS011;60645;56.968;24.196;2023-04-03T01:45:31;4.45;;;0.60;;
72603;SDS011;60645;56.968;24.196;2023-04-03T01:47:58;1.80;;;0.60;;
72603;SDS011;60645;56.968;24.196;2023-04-03T01:50:25;4.03;;;0.45;;
72603;SDS011;60645;56.968;24.196;2023-04-03T01:52:52;1.17;;;0.20;;
72603;SDS011;60645;56.968;24.196;2023-04-03T01:55:18;2.63;;;0.80;;
72603;SDS011;60645;56.968;24.196;2023-04-03T01:57:46;0.90;;;0.30;;
72603;SDS011;60645;56.968;24.196;2023-04-03T02:00:13;2.67;;;0.43;;
72603;SDS011;60645;56.968;24.196;2023-04-03T02:02:40;1.63;;;0.43;;
72603;SDS011;60645;56.968;24.196;2023-04-03T02:05:07;2.75;;;0.52;;
72603;SDS011;60645;56.968;24.196;2023-04-03T02:07:34;3.05;;;0.47;;
72603;SDS011;60645;56.968;24.196;2023-04-03T02:10:02;1.23;;;0.10;;
72603;SDS011;60645;56.968;24.196;2023-04-03T02:12:29;2.28;;;0.45;;
72603;SDS011;60645;56.968;24.196;2023-04-03T02:14:56;1.00;;;0.10;;
72603;SDS011;60645;56.968;24.196;2023-04-03T02:17:23;1.65;;;0.43;;
72603;SDS011;60645;56.968;24.196;2023-04-03T02:19:50;2.63;;;0.20;;
72603;SDS011;60645;56.968;24.196;2023-04-03T02:22:16;3.85;;;0.30;;
72603;SDS011;60645;56.968;24.196;2023-04-03T02:24:43;2.20;;;0.32;;
72603;SDS011;60645;56.968;24.196;2023-04-03T02:27:10;2.30;;;0.43;;
72603;SDS011;60645;56.968;24.196;2023-04-03T02:29:38;0.77;;;0.32;;
72603;SDS011;60645;56.968;24.196;2023-04-03T02:32:04;1.33;;;0.55;;
72603;SDS011;60645;56.968;24.196;2023-04-03T02:34:32;1.88;;;0.52;;
72603;SDS011;60645;56.968;24.196;2023-04-03T02:36:58;2.85;;;0.38;;
72603;SDS011;60645;56.968;24.196;2023-04-03T02:39:25;2.47;;;0.17;;
72603;SDS011;60645;56.968;24.196;2023-04-03T02:41:52;5.03;;;0.50;;
72603;SDS011;60645;56.968;24.196;2023-04-03T02:44:19;1.58;;;0.30;;
72603;SDS011;60645;56.968;24.196;2023-04-03T02:46:46;7.05;;;0.43;;
72603;SDS011;60645;56.968;24.196;2023-04-03T02:49:13;1.40;;;0.20;;
72603;SDS011;60645;56.968;24.196;2023-04-03T02:54:07;1.48;;;0.50;;
72603;SDS011;60645;56.968;24.196;2023-04-03T02:56:34;2.60;;;0.40;;
72603;SDS011;60645;56.968;24.196;2023-04-03T02:59:01;5.50;;;0.57;;
72603;SDS011;60645;56.968;24.196;2023-04-03T03:01:28;3.53;;;0.28;;
72603;SDS011;60645;56.968;24.196;2023-04-03T03:03:58;0.73;;;0.20;;
72603;SDS011;60645;56.968;24.196;2023-04-03T03:08:53;2.25;;;0.60;;
72603;SDS011;60645;56.968;24.196;2023-04-03T03:11:20;1.33;;;0.38;;
72603;SDS011;60645;56.968;24.196;2023-04-03T03:16:14;3.58;;;0.40;;
72603;SDS011;60645;56.968;24.196;2023-04-03T03:18:42;1.05;;;0.32;;
72603;SDS011;60645;56.968;24.196;2023-04-03T03:21:09;1.38;;;0.45;;
72603;SDS011;60645;56.968;24.196;2023-04-03T03:23:37;2.03;;;0.30;;
72603;SDS011;60645;56.968;24.196;2023-04-03T03:26:05;1.88;;;0.50;;
72603;SDS011;60645;56.968;24.196;2023-04-03T03:28:33;0.80;;;0.35;;
72603;SDS011;60645;56.968;24.196;2023-04-03T03:31:01;0.77;;;0.28;;
72603;SDS011;60645;56.968;24.196;2023-04-03T03:33:28;2.47;;;0.73;;
72603;SDS011;60645;56.968;24.196;2023-04-03T03:35:56;2.70;;;0.88;;
72603;SDS011;60645;56.968;24.196;2023-04-03T03:38:23;1.25;;;0.52;;
72603;SDS011;60645;56.968;24.196;2023-04-03T03:40:50;1.38;;;0.38;;
72603;SDS011;60645;56.968;24.196;2023-04-03T03:45:44;1.63;;;0.32;;
72603;SDS011;60645;56.968;24.196;2023-04-03T03:50:42;0.93;;;0.25;;
72603;SDS011;60645;56.968;24.196;2023-04-03T03:53:09;1.73;;;0.32;;
72603;SDS011;60645;56.968;24.196;2023-04-03T03:55:36;2.92;;;0.65;;
72603;SDS011;60645;56.968;24.196;2023-04-03T03:58:03;2.58;;;0.57;;
72603;SDS011;60645;56.968;24.196;2023-04-03T04:00:30;1.52;;;0.60;;
72603;SDS011;60645;56.968;24.196;2023-04-03T04:05:24;1.23;;;0.30;;
72603;SDS011;60645;56.968;24.196;2023-04-03T16:13:18;1.42;;;0.15;;
72603;SDS011;60645;56.968;24.196;2023-04-03T16:15:45;2.53;;;1.02;;
72603;SDS011;60645;56.968;24.196;2023-04-03T16:35:22;5.35;;;0.50;;
72603;SDS011;60645;56.968;24.196;2023-04-03T16:42:43;5.10;;;1.17;;
72603;SDS011;60645;56.968;24.196;2023-04-03T16:45:10;4.55;;;1.15;;
72603;SDS011;60645;56.968;24.196;2023-04-03T16:47:37;3.10;;;0.88;;
72603;SDS011;60645;56.968;24.196;2023-04-03T16:50:04;3.15;;;1.15;;
72603;SDS011;60645;56.968;24.196;2023-04-03T16:52:31;2.88;;;0.85;;
72603;SDS011;60645;56.968;24.196;2023-04-03T16:54:58;2.10;;;0.45;;
72603;SDS011;60645;56.968;24.196;2023-04-03T16:59:52;3.85;;;0.65;;
72603;SDS011;60645;56.968;24.196;2023-04-03T17:02:20;1.83;;;0.55;;
72603;SDS011;60645;56.968;24.196;2023-04-03T17:04:47;7.00;;;0.73;;
72603;SDS011;60645;56.968;24.196;2023-04-03T17:07:18;1.98;;;0.20;;
72603;SDS011;60645;56.968;24.196;2023-04-03T17:09:46;5.60;;;1.20;;
72603;SDS011;60645;56.968;24.196;2023-04-03T17:12:14;4.65;;;1.20;;
72603;SDS011;60645;56.968;24.196;2023-04-03T17:14:42;6.15;;;1.45;;
72603;SDS011;60645;56.968;24.196;2023-04-03T17:17:09;2.22;;;0.60;;
72603;SDS011;60645;56.968;24.196;2023-04-03T17:19:36;3.17;;;0.82;;
72603;SDS011;60645;56.968;24.196;2023-04-03T17:22:04;5.72;;;1.75;;
72603;SDS011;60645;56.968;24.196;2023-04-03T17:24:32;6.32;;;1.20;;
72603;SDS011;60645;56.968;24.196;2023-04-03T17:27:00;5.32;;;0.70;;
72603;SDS011;60645;56.968;24.196;2023-04-03T17:29:27;6.93;;;1.83;;
72603;SDS011;60645;56.968;24.196;2023-04-03T17:31:54;5.35;;;2.42;;
72603;SDS011;60645;56.968;24.196;2023-04-03T17:34:21;3.92;;;1.80;;
72603;SDS011;60645;56.968;24.196;2023-04-03T17:39:15;1.52;;;0.60;;
72603;SDS011;60645;56.968;24.196;2023-04-03T17:41:43;4.20;;;1.50;;
72603;SDS011;60645;56.968;24.196;2023-04-03T17:44:11;4.27;;;1.70;;
72603;SDS011;60645;56.968;24.196;2023-04-03T17:46:38;3.05;;;1.42;;
72603;SDS011;60645;56.968;24.196;2023-04-03T17:49:05;3.13;;;1.30;;
72603;SDS011;60645;56.968;24.196;2023-04-03T17:51:32;2.03;;;0.68;;
72603;SDS011;60645;56.968;24.196;2023-04-03T17:53:59;3.75;;;1.35;;
72603;SDS011;60645;56.968;24.196;2023-04-03T17:56:26;2.38;;;0.60;;
72603;SDS011;60645;56.968;24.196;2023-04-03T17:58:54;3.13;;;1.05;;
72603;SDS011;60645;56.968;24.196;2023-04-03T18:03:55;3.33;;;0.57;;
72603;SDS011;60645;56.968;24.196;2023-04-03T18:06:28;4.00;;;1.00;;
72603;SDS011;60645;56.968;24.196;2023-04-03T18:09:00;3.90;;;0.82;;
72603;SDS011;60645;56.968;24.196;2023-04-03T18:11:49;1.88;;;0.40;;
72603;SDS011;60645;56.968;24.196;2023-04-03T18:14:18;1.83;;;0.30;;
72603;SDS011;60645;56.968;24.196;2023-04-03T18:16:49;1.40;;;0.32;;
72603;SDS011;60645;56.968;24.196;2023-04-03T18:19:17;3.38;;;0.55;;
72603;SDS011;60645;56.968;24.196;2023-04-03T18:26:49;3.00;;;0.47;;
